sensor_id;sensor_type;location;lat;lon;timestamp;pressure;altitude;pressure_sealevel;temperature;humidity
6020;BME280;3038;51.122;6.840;2023-04-29T00:00:53;100987.66;;;12.86;77.54
6020;BME280;3038;51.122;6.840;2023-04-29T00:03:21;100989.13;;;12.89;78.15
6020;BME280;3038;51.122;6.840;2023-04-29T00:05:46;100988.47;;;12.87;77.42
6020;BME280;3038;51.122;6.840;2023-04-29T00:08:12;100987.66;;;12.86;77.06
6020;BME280;3038;51.122;6.840;2023-04-29T00:10:39;100991.28;;;12.94;77.32
6020;BME280;3038;51.122;6.840;2023-04-29T00:13:05;100993.97;;;12.85;77.27
6020;BME280;3038;51.122;6.840;2023-04-29T00:15:30;100991.97;;;12.79;77.40
6020;BME280;3038;51.122;6.840;2023-04-29T00:17:55;100989.81;;;12.75;77.87
6020;BME280;3038;51.122;6.840;2023-04-29T00:20:21;100996.66;;;12.77;77.88
6020;BME280;3038;51.122;6.840;2023-04-29T00:22:47;100992.66;;;12.73;78.17
6020;BME280;3038;51.122;6.840;2023-04-29T00:25:13;100994.16;;;12.68;78.31
6020;BME280;3038;51.122;6.840;2023-04-29T00:27:42;100993.13;;;12.60;78.86
6020;BME280;3038;51.122;6.840;2023-04-29T00:30:10;100992.31;;;12.60;79.10
6020;BME280;3038;51.122;6.840;2023-04-29T00:32:36;101000.63;;;12.57;79.82
6020;BME280;3038;51.122;6.840;2023-04-29T00:35:01;101005.63;;;12.52;79.94
6020;BME280;3038;51.122;6.840;2023-04-29T00:37:27;101001.28;;;12.51;79.81
6020;BME280;3038;51.122;6.840;2023-04-29T00:39:53;101002.63;;;12.47;80.35
6020;BME280;3038;51.122;6.840;2023-04-29T00:42:19;101013.94;;;12.41;81.03
6020;BME280;3038;51.122;6.840;2023-04-29T00:44:45;101014.44;;;12.36;81.02
6020;BME280;3038;51.122;6.840;2023-04-29T00:47:10;101018.25;;;12.33;81.91
6020;BME280;3038;51.122;6.840;2023-04-29T00:49:38;101014.91;;;12.31;81.49
6020;BME280;3038;51.122;6.840;2023-04-29T00:52:03;101020.91;;;12.25;81.78
6020;BME280;3038;51.122;6.840;2023-04-29T00:54:32;101023.91;;;12.30;82.17
6020;BME280;3038;51.122;6.840;2023-04-29T00:56:58;101029.06;;;12.24;82.54
6020;BME280;3038;51.122;6.840;2023-04-29T00:59:27;101030.53;;;12.18;82.51
6020;BME280;3038;51.122;6.840;2023-04-29T01:01:59;101038.50;;;12.18;82.88
6020;BME280;3038;51.122;6.840;2023-04-29T01:04:25;101041.81;;;12.12;82.15
6020;BME280;3038;51.122;6.840;2023-04-29T01:07:11;101044.47;;;12.04;82.37
6020;BME280;3038;51.122;6.840;2023-04-29T01:12:40;101046.09;;;11.97;82.50
6020;BME280;3038;51.122;6.840;2023-04-29T01:15:26;101047.09;;;11.96;82.28
6020;BME280;3038;51.122;6.840;2023-04-29T01:20:31;101050.59;;;11.96;82.41
6020;BME280;3038;51.122;6.840;2023-04-29T01:22:57;101058.06;;;11.93;82.59
6020;BME280;3038;51.122;6.840;2023-04-29T01:25:23;101056.41;;;11.92;82.54
6020;BME280;3038;51.122;6.840;2023-04-29T01:31:14;101063.06;;;11.96;82.41
6020;BME280;3038;51.122;6.840;2023-04-29T01:34:22;101052.56;;;11.86;82.71
6020;BME280;3038;51.122;6.840;2023-04-29T01:39:40;101062.94;;;11.79;83.17
6020;BME280;3038;51.122;6.840;2023-04-29T01:45:09;101065.47;;;11.81;82.91
6020;BME280;3038;51.122;6.840;2023-04-29T01:47:36;101059.31;;;11.80;82.78
6020;BME280;3038;51.122;6.840;2023-04-29T01:50:03;101071.94;;;11.78;83.28
6020;BME280;3038;51.122;6.840;2023-04-29T01:52:38;101066.84;;;11.59;84.31
6020;BME280;3038;51.122;6.840;2023-04-29T01:55:05;101071.44;;;11.49;85.46
6020;BME280;3038;51.122;6.840;2023-04-29T01:57:31;101071.75;;;11.46;85.86
6020;BME280;3038;51.122;6.840;2023-04-29T02:00:11;101069.94;;;11.46;86.02
6020;BME280;3038;51.122;6.840;2023-04-29T02:02:36;101072.75;;;11.45;86.20
6020;BME280;3038;51.122;6.840;2023-04-29T02:05:05;101078.69;;;11.39;86.46
6020;BME280;3038;51.122;6.840;2023-04-29T02:07:31;101070.41;;;11.42;86.42
6020;BME280;3038;51.122;6.840;2023-04-29T02:09:56;101081.00;;;11.33;86.91
6020;BME280;3038;51.122;6.840;2023-04-29T02:12:42;101073.00;;;11.33;87.03
6020;BME280;3038;51.122;6.840;2023-04-29T02:15:08;101079.69;;;11.38;87.13
6020;BME280;3038;51.122;6.840;2023-04-29T02:17:34;101083.66;;;11.33;87.79
6020;BME280;3038;51.122;6.840;2023-04-29T02:20:08;101087.59;;;11.29;87.51
6020;BME280;3038;51.122;6.840;2023-04-29T02:22:37;101084.41;;;11.26;87.62
6020;BME280;3038;51.122;6.840;2023-04-29T02:25:21;101085.94;;;11.28;87.79
6020;BME280;3038;51.122;6.840;2023-04-29T02:27:53;101087.91;;;11.26;87.76
6020;BME280;3038;51.122;6.840;2023-04-29T02:30:21;101095.22;;;11.24;88.67
6020;BME280;3038;51.122;6.840;2023-04-29T02:33:03;101097.50;;;11.19;88.65
6020;BME280;3038;51.122;6.840;2023-04-29T02:35:32;101101.91;;;11.11;88.73
6020;BME280;3038;51.122;6.840;2023-04-29T02:38:01;101102.53;;;11.04;89.03
6020;BME280;3038;51.122;6.840;2023-04-29T02:40:32;101100.50;;;10.98;88.60
6020;BME280;3038;51.122;6.840;2023-04-29T02:42:58;101106.94;;;10.96;88.38
6020;BME280;3038;51.122;6.840;2023-04-29T02:45:27;101104.09;;;10.97;88.87
6020;BME280;3038;51.122;6.840;2023-04-29T02:48:02;101111.13;;;10.98;88.79
6020;BME280;3038;51.122;6.840;2023-04-29T02:51:10;101118.25;;;10.98;88.80
6020;BME280;3038;51.122;6.840;2023-04-29T02:53:31;101130.75;;;10.88;88.52
6020;BME280;3038;51.122;6.840;2023-04-29T02:55:57;101128.41;;;10.85;88.81
6020;BME280;3038;51.122;6.840;2023-04-29T02:58:22;101128.50;;;10.75;88.06
6020;BME280;3038;51.122;6.840;2023-04-29T03:00:51;101130.59;;;10.71;88.12
6020;BME280;3038;51.122;6.840;2023-04-29T03:03:19;101135.47;;;10.76;88.25
6020;BME280;3038;51.122;6.840;2023-04-29T03:06:06;101128.03;;;10.79;87.40
6020;BME280;3038;51.122;6.840;2023-04-29T03:08:44;101132.06;;;10.84;87.02
6020;BME280;3038;51.122;6.840;2023-04-29T03:11:53;101134.84;;;10.82;86.58
6020;BME280;3038;51.122;6.840;2023-04-29T03:14:57;101138.66;;;10.79;86.37
6020;BME280;3038;51.122;6.840;2023-04-29T03:17:40;101142.31;;;10.78;86.63
6020;BME280;3038;51.122;6.840;2023-04-29T03:20:14;101153.22;;;10.75;87.02
6020;BME280;3038;51.122;6.840;2023-04-29T03:23:08;101148.97;;;10.65;86.76
6020;BME280;3038;51.122;6.840;2023-04-29T03:35:27;101159.25;;;10.50;88.87
6020;BME280;3038;51.122;6.840;2023-04-29T03:38:24;101154.28;;;10.37;89.19
6020;BME280;3038;51.122;6.840;2023-04-29T03:41:03;101162.25;;;10.37;89.27
6020;BME280;3038;51.122;6.840;2023-04-29T03:43:30;101154.28;;;10.37;89.72
6020;BME280;3038;51.122;6.840;2023-04-29T03:46:21;101159.59;;;10.37;90.03
6020;BME280;3038;51.122;6.840;2023-04-29T03:49:30;101165.47;;;10.41;90.45
6020;BME280;3038;51.122;6.840;2023-04-29T03:52:08;101164.53;;;10.32;90.00
6020;BME280;3038;51.122;6.840;2023-04-29T03:55:21;101170.53;;;10.24;90.73
6020;BME280;3038;51.122;6.840;2023-04-29T03:58:14;101163.75;;;10.12;90.38
6020;BME280;3038;51.122;6.840;2023-04-29T04:00:45;101174.22;;;10.04;91.48
6020;BME280;3038;51.122;6.840;2023-04-29T04:03:13;101173.94;;;10.07;91.48
6020;BME280;3038;51.122;6.840;2023-04-29T04:05:39;101176.72;;;10.05;91.39
6020;BME280;3038;51.122;6.840;2023-04-29T04:08:23;101169.78;;;9.95;91.79
6020;BME280;3038;51.122;6.840;2023-04-29T04:10:49;101180.72;;;9.92;91.28
6020;BME280;3038;51.122;6.840;2023-04-29T04:13:15;101189.63;;;9.91;92.30
6020;BME280;3038;51.122;6.840;2023-04-29T04:15:49;101191.31;;;9.92;92.30
6020;BME280;3038;51.122;6.840;2023-04-29T04:18:15;101183.06;;;9.95;92.20
6020;BME280;3038;51.122;6.840;2023-04-29T04:20:41;101189.06;;;9.97;92.30
6020;BME280;3038;51.122;6.840;2023-04-29T04:23:06;101194.22;;;9.98;92.77
6020;BME280;3038;51.122;6.840;2023-04-29T04:25:32;101195.75;;;10.01;92.92
6020;BME280;3038;51.122;6.840;2023-04-29T04:27:58;101199.78;;;10.05;91.85
6020;BME280;3038;51.122;6.840;2023-04-29T04:30:23;101200.06;;;10.12;92.20
6020;BME280;3038;51.122;6.840;2023-04-29T04:32:49;101200.19;;;10.10;92.12
6020;BME280;3038;51.122;6.840;2023-04-29T04:35:21;101205.78;;;10.07;91.90
6020;BME280;3038;51.122;6.840;2023-04-29T04:38:22;101207.72;;;10.05;91.70
6020;BME280;3038;51.122;6.840;2023-04-29T04:40:50;101205.47;;;10.10;91.73
6020;BME280;3038;51.122;6.840;2023-04-29T04:43:21;101217.06;;;10.19;91.98
6020;BME280;3038;51.122;6.840;2023-04-29T04:46:32;101213.13;;;10.23;90.88
6020;BME280;3038;51.122;6.840;2023-04-29T04:48:36;101220.97;;;10.15;91.22
6020;BME280;3038;51.122;6.840;2023-04-29T04:51:16;101227.25;;;10.14;90.76
6020;BME280;3038;51.122;6.840;2023-04-29T04:54:30;101225.84;;;10.19;91.36
6020;BME280;3038;51.122;6.840;2023-04-29T04:56:55;101233.13;;;10.17;91.04
6020;BME280;3038;51.122;6.840;2023-04-29T04:59:20;101240.09;;;10.18;90.59
6020;BME280;3038;51.122;6.840;2023-04-29T05:01:49;101238.72;;;10.14;89.95
6020;BME280;3038;51.122;6.840;2023-04-29T05:04:23;101237.31;;;10.10;90.58
6020;BME280;3038;51.122;6.840;2023-04-29T05:07:34;101238.72;;;10.14;90.67
6020;BME280;3038;51.122;6.840;2023-04-29T05:10:09;101244.72;;;10.26;90.33
6020;BME280;3038;51.122;6.840;2023-04-29T05:12:44;101242.06;;;10.26;89.64
6020;BME280;3038;51.122;6.840;2023-04-29T05:15:21;101256.84;;;10.28;89.65
6020;BME280;3038;51.122;6.840;2023-04-29T05:17:48;101258.53;;;10.29;89.11
6020;BME280;3038;51.122;6.840;2023-04-29T05:20:17;101261.88;;;10.32;89.57
6020;BME280;3038;51.122;6.840;2023-04-29T05:23:04;101262.88;;;10.31;89.13
6020;BME280;3038;51.122;6.840;2023-04-29T05:25:36;101264.38;;;10.33;89.77
6020;BME280;3038;51.122;6.840;2023-04-29T05:28:18;101270.84;;;10.31;89.49
6020;BME280;3038;51.122;6.840;2023-04-29T05:30:58;101268.84;;;10.23;90.00
6020;BME280;3038;51.122;6.840;2023-04-29T05:33:27;101277.66;;;10.23;89.70
6020;BME280;3038;51.122;6.840;2023-04-29T05:36:13;101273.19;;;10.34;89.34
6020;BME280;3038;51.122;6.840;2023-04-29T05:38:41;101278.38;;;10.35;89.28
6020;BME280;3038;51.122;6.840;2023-04-29T05:41:09;101282.53;;;10.38;89.16
6020;BME280;3038;51.122;6.840;2023-04-29T05:46:39;101285.47;;;10.35;89.31
6020;BME280;3038;51.122;6.840;2023-04-29T05:52:43;101288.53;;;10.49;88.98
6020;BME280;3038;51.122;6.840;2023-04-29T05:55:23;101298.72;;;10.54;89.60
6020;BME280;3038;51.122;6.840;2023-04-29T05:58:03;101302.72;;;10.58;88.41
6020;BME280;3038;51.122;6.840;2023-04-29T06:00:38;101296.69;;;10.66;88.28
6020;BME280;3038;51.122;6.840;2023-04-29T06:03:34;101309.81;;;10.67;87.78
6020;BME280;3038;51.122;6.840;2023-04-29T06:06:14;101309.25;;;10.73;88.40
6020;BME280;3038;51.122;6.840;2023-04-29T06:08:51;101314.81;;;10.80;86.90
6020;BME280;3038;51.122;6.840;2023-04-29T06:11:30;101322.63;;;10.81;87.37
6020;BME280;3038;51.122;6.840;2023-04-29T06:14:07;101325.66;;;10.87;86.68
6020;BME280;3038;51.122;6.840;2023-04-29T06:16:35;101331.38;;;10.92;85.90
6020;BME280;3038;51.122;6.840;2023-04-29T06:19:04;101340.13;;;11.02;85.23
6020;BME280;3038;51.122;6.840;2023-04-29T06:21:30;101339.28;;;11.01;85.30
6020;BME280;3038;51.122;6.840;2023-04-29T06:23:56;101339.84;;;11.05;85.27
6020;BME280;3038;51.122;6.840;2023-04-29T06:26:22;101347.78;;;11.15;85.14
6020;BME280;3038;51.122;6.840;2023-04-29T06:28:48;101346.50;;;11.19;84.83
6020;BME280;3038;51.122;6.840;2023-04-29T06:31:14;101347.44;;;11.27;84.40
6020;BME280;3038;51.122;6.840;2023-04-29T06:33:40;101350.47;;;11.32;84.78
6020;BME280;3038;51.122;6.840;2023-04-29T06:36:06;101348.88;;;11.40;83.78
6020;BME280;3038;51.122;6.840;2023-04-29T06:38:34;101350.53;;;11.41;83.71
6020;BME280;3038;51.122;6.840;2023-04-29T06:41:03;101355.63;;;11.34;83.13
6020;BME280;3038;51.122;6.840;2023-04-29T06:43:31;101360.13;;;11.33;83.26
6020;BME280;3038;51.122;6.840;2023-04-29T06:45:57;101358.13;;;11.36;83.61
6020;BME280;3038;51.122;6.840;2023-04-29T06:48:25;101362.34;;;11.38;83.48
6020;BME280;3038;51.122;6.840;2023-04-29T06:50:57;101366.22;;;11.44;82.70
6020;BME280;3038;51.122;6.840;2023-04-29T06:53:23;101367.03;;;11.44;83.58
6020;BME280;3038;51.122;6.840;2023-04-29T06:55:49;101372.13;;;11.38;82.90
6020;BME280;3038;51.122;6.840;2023-04-29T06:58:16;101380.41;;;11.35;82.43
6020;BME280;3038;51.122;6.840;2023-04-29T07:00:48;101378.22;;;11.48;82.61
6020;BME280;3038;51.122;6.840;2023-04-29T07:03:18;101376.44;;;11.66;82.14
6020;BME280;3038;51.122;6.840;2023-04-29T07:05:44;101379.16;;;11.74;81.11
6020;BME280;3038;51.122;6.840;2023-04-29T07:08:10;101385.09;;;11.68;81.56
6020;BME280;3038;51.122;6.840;2023-04-29T07:10:40;101393.44;;;11.73;82.25
6020;BME280;3038;51.122;6.840;2023-04-29T07:13:08;101391.16;;;11.78;82.27
6020;BME280;3038;51.122;6.840;2023-04-29T07:15:34;101403.41;;;11.71;81.48
6020;BME280;3038;51.122;6.840;2023-04-29T07:18:03;101402.94;;;11.58;81.95
6020;BME280;3038;51.122;6.840;2023-04-29T07:20:28;101407.63;;;11.46;81.61
6020;BME280;3038;51.122;6.840;2023-04-29T07:22:57;101411.81;;;11.49;81.65
6020;BME280;3038;51.122;6.840;2023-04-29T07:25:22;101422.50;;;11.39;81.41
6020;BME280;3038;51.122;6.840;2023-04-29T07:27:48;101425.31;;;11.38;81.77
6020;BME280;3038;51.122;6.840;2023-04-29T07:30:13;101416.06;;;11.42;81.78
6020;BME280;3038;51.122;6.840;2023-04-29T07:32:39;101425.69;;;11.43;82.37
6020;BME280;3038;51.122;6.840;2023-04-29T07:35:05;101436.63;;;11.40;81.78
6020;BME280;3038;51.122;6.840;2023-04-29T07:37:33;101435.38;;;11.34;82.09
6020;BME280;3038;51.122;6.840;2023-04-29T07:39:58;101431.22;;;11.31;81.95
6020;BME280;3038;51.122;6.840;2023-04-29T07:42:25;101436.78;;;11.38;81.83
6020;BME280;3038;51.122;6.840;2023-04-29T07:44:53;101437.31;;;11.42;80.58
6020;BME280;3038;51.122;6.840;2023-04-29T07:47:22;101435.28;;;11.53;81.15
6020;BME280;3038;51.122;6.840;2023-04-29T07:49:48;101443.94;;;11.55;80.01
6020;BME280;3038;51.122;6.840;2023-04-29T07:52:14;101440.38;;;11.47;79.94
6020;BME280;3038;51.122;6.840;2023-04-29T07:54:40;101441.84;;;11.59;79.87
6020;BME280;3038;51.122;6.840;2023-04-29T07:57:05;101445.81;;;11.73;78.96
6020;BME280;3038;51.122;6.840;2023-04-29T07:59:31;101446.88;;;11.90;78.96
6020;BME280;3038;51.122;6.840;2023-04-29T08:01:57;101450.69;;;12.05;78.91
6020;BME280;3038;51.122;6.840;2023-04-29T08:04:22;101454.41;;;12.12;77.63
6020;BME280;3038;51.122;6.840;2023-04-29T08:06:48;101456.84;;;12.23;77.70
6020;BME280;3038;51.122;6.840;2023-04-29T08:09:14;101461.19;;;12.24;77.11
6020;BME280;3038;51.122;6.840;2023-04-29T08:11:40;101465.06;;;12.12;77.27
6020;BME280;3038;51.122;6.840;2023-04-29T08:14:07;101466.88;;;12.12;77.55
6020;BME280;3038;51.122;6.840;2023-04-29T08:16:33;101468.16;;;12.07;77.92
6020;BME280;3038;51.122;6.840;2023-04-29T08:18:58;101473.56;;;12.16;77.72
6020;BME280;3038;51.122;6.840;2023-04-29T08:21:24;101473.50;;;12.25;77.63
6020;BME280;3038;51.122;6.840;2023-04-29T08:23:49;101473.25;;;12.37;77.21
6020;BME280;3038;51.122;6.840;2023-04-29T08:26:16;101474.47;;;12.42;76.24
6020;BME280;3038;51.122;6.840;2023-04-29T08:28:42;101479.72;;;12.52;76.71
6020;BME280;3038;51.122;6.840;2023-04-29T08:31:15;101481.03;;;12.48;76.17
6020;BME280;3038;51.122;6.840;2023-04-29T08:33:44;101482.91;;;12.38;75.80
6020;BME280;3038;51.122;6.840;2023-04-29T08:36:13;101480.97;;;12.40;76.20
6020;BME280;3038;51.122;6.840;2023-04-29T08:38:39;101488.94;;;12.40;76.63
6020;BME280;3038;51.122;6.840;2023-04-29T08:41:07;101488.47;;;12.26;76.17
6020;BME280;3038;51.122;6.840;2023-04-29T08:43:36;101499.28;;;12.25;76.12
6020;BME280;3038;51.122;6.840;2023-04-29T08:46:03;101495.78;;;12.24;75.98
6020;BME280;3038;51.122;6.840;2023-04-29T08:48:29;101499.50;;;12.31;76.28
6020;BME280;3038;51.122;6.840;2023-04-29T08:50:55;101496.47;;;12.26;75.74
6020;BME280;3038;51.122;6.840;2023-04-29T08:53:23;101502.25;;;12.40;75.95
6020;BME280;3038;51.122;6.840;2023-04-29T08:55:53;101506.97;;;12.46;75.44
6020;BME280;3038;51.122;6.840;2023-04-29T08:58:19;101510.38;;;12.56;75.45
6020;BME280;3038;51.122;6.840;2023-04-29T09:00:47;101510.00;;;12.51;75.65
6020;BME280;3038;51.122;6.840;2023-04-29T09:03:33;101517.09;;;12.60;75.63
6020;BME280;3038;51.122;6.840;2023-04-29T09:06:05;101517.16;;;12.32;75.94
6020;BME280;3038;51.122;6.840;2023-04-29T09:08:31;101514.13;;;12.27;76.60
6020;BME280;3038;51.122;6.840;2023-04-29T09:10:58;101520.75;;;12.23;76.46
6020;BME280;3038;51.122;6.840;2023-04-29T09:13:25;101526.66;;;12.17;76.55
6020;BME280;3038;51.122;6.840;2023-04-29T09:15:51;101524.91;;;12.08;77.63
6020;BME280;3038;51.122;6.840;2023-04-29T09:21:25;101521.31;;;11.99;76.90
6020;BME280;3038;51.122;6.840;2023-04-29T09:23:53;101525.72;;;11.91;78.07
6020;BME280;3038;51.122;6.840;2023-04-29T09:26:19;101529.38;;;11.90;77.41
6020;BME280;3038;51.122;6.840;2023-04-29T09:29:08;101531.50;;;11.76;78.54
6020;BME280;3038;51.122;6.840;2023-04-29T09:31:36;101536.81;;;11.76;78.63
6020;BME280;3038;51.122;6.840;2023-04-29T09:34:03;101535.16;;;11.75;79.06
6020;BME280;3038;51.122;6.840;2023-04-29T09:36:46;101533.06;;;11.69;79.57
6020;BME280;3038;51.122;6.840;2023-04-29T09:39:18;101538.72;;;11.56;79.86
6020;BME280;3038;51.122;6.840;2023-04-29T09:44:26;101541.13;;;11.50;80.08
6020;BME280;3038;51.122;6.840;2023-04-29T09:47:05;101541.50;;;11.55;80.17
6020;BME280;3038;51.122;6.840;2023-04-29T09:49:36;101545.16;;;11.54;80.06
6020;BME280;3038;51.122;6.840;2023-04-29T09:52:05;101550.59;;;11.62;80.58
6020;BME280;3038;51.122;6.840;2023-04-29T09:54:32;101555.91;;;11.62;80.23
6020;BME280;3038;51.122;6.840;2023-04-29T09:56:59;101558.59;;;11.62;79.91
6020;BME280;3038;51.122;6.840;2023-04-29T09:59:26;101557.31;;;11.66;79.90
6020;BME280;3038;51.122;6.840;2023-04-29T10:01:53;101565.28;;;11.66;79.87
6020;BME280;3038;51.122;6.840;2023-04-29T10:04:23;101559.97;;;11.66;79.14
6020;BME280;3038;51.122;6.840;2023-04-29T10:06:53;101564.84;;;11.71;79.45
6020;BME280;3038;51.122;6.840;2023-04-29T10:09:20;101563.69;;;11.83;79.53
6020;BME280;3038;51.122;6.840;2023-04-29T10:11:51;101573.22;;;11.86;79.55
6020;BME280;3038;51.122;6.840;2023-04-29T10:14:20;101570.25;;;11.89;79.70
6020;BME280;3038;51.122;6.840;2023-04-29T10:17:01;101576.94;;;11.93;78.96
6020;BME280;3038;51.122;6.840;2023-04-29T10:19:37;101577.06;;;12.01;79.19
6020;BME280;3038;51.122;6.840;2023-04-29T10:22:09;101579.28;;;12.05;78.75
6020;BME280;3038;51.122;6.840;2023-04-29T10:24:37;101580.72;;;12.00;78.62
6020;BME280;3038;51.122;6.840;2023-04-29T10:27:09;101575.63;;;12.06;78.30
6020;BME280;3038;51.122;6.840;2023-04-29T10:29:39;101578.44;;;12.05;78.41
6020;BME280;3038;51.122;6.840;2023-04-29T10:32:09;101581.22;;;12.03;78.51
6020;BME280;3038;51.122;6.840;2023-04-29T10:34:37;101574.69;;;11.98;78.17
6020;BME280;3038;51.122;6.840;2023-04-29T10:37:10;101578.72;;;12.02;78.33
6020;BME280;3038;51.122;6.840;2023-04-29T10:39:44;101586.81;;;12.10;77.89
6020;BME280;3038;51.122;6.840;2023-04-29T10:42:27;101591.66;;;12.24;78.45
6020;BME280;3038;51.122;6.840;2023-04-29T10:50:32;101597.66;;;12.26;76.95
6020;BME280;3038;51.122;6.840;2023-04-29T10:53:02;101594.59;;;12.21;76.97
6020;BME280;3038;51.122;6.840;2023-04-29T10:55:37;101592.69;;;12.14;77.15
6020;BME280;3038;51.122;6.840;2023-04-29T10:58:44;101597.06;;;12.05;77.41
6020;BME280;3038;51.122;6.840;2023-04-29T11:01:15;101599.81;;;12.13;77.24
6020;BME280;3038;51.122;6.840;2023-04-29T11:03:45;101601.47;;;12.24;77.21
6020;BME280;3038;51.122;6.840;2023-04-29T11:06:13;101604.63;;;12.27;77.22
6020;BME280;3038;51.122;6.840;2023-04-29T11:08:42;101601.47;;;12.42;77.29
6020;BME280;3038;51.122;6.840;2023-04-29T11:11:22;101606.66;;;12.61;76.92
6020;BME280;3038;51.122;6.840;2023-04-29T11:14:20;101614.38;;;12.82;76.61
6020;BME280;3038;51.122;6.840;2023-04-29T11:16:57;101604.84;;;13.15;75.34
6020;BME280;3038;51.122;6.840;2023-04-29T11:19:27;101605.97;;;13.30;74.50
6020;BME280;3038;51.122;6.840;2023-04-29T11:25:02;101608.53;;;13.66;71.85
6020;BME280;3038;51.122;6.840;2023-04-29T11:27:33;101601.88;;;13.70;72.01
6020;BME280;3038;51.122;6.840;2023-04-29T11:29:59;101611.44;;;13.81;71.84
6020;BME280;3038;51.122;6.840;2023-04-29T11:32:33;101598.03;;;14.07;71.47
6020;BME280;3038;51.122;6.840;2023-04-29T11:35:12;101599.13;;;14.22;69.96
6020;BME280;3038;51.122;6.840;2023-04-29T11:37:42;101601.78;;;14.30;69.93
6020;BME280;3038;51.122;6.840;2023-04-29T11:40:09;101607.34;;;14.45;69.63
6020;BME280;3038;51.122;6.840;2023-04-29T11:42:40;101614.19;;;14.31;69.06
6020;BME280;3038;51.122;6.840;2023-04-29T11:45:06;101608.63;;;14.25;69.94
6020;BME280;3038;51.122;6.840;2023-04-29T11:47:44;101617.34;;;14.27;69.38
6020;BME280;3038;51.122;6.840;2023-04-29T11:50:11;101616.28;;;14.62;69.37
6020;BME280;3038;51.122;6.840;2023-04-29T11:52:38;101612.94;;;14.68;69.12
6020;BME280;3038;51.122;6.840;2023-04-29T11:55:05;101614.53;;;14.45;68.28
6020;BME280;3038;51.122;6.840;2023-04-29T11:57:32;101619.16;;;14.34;69.41
6020;BME280;3038;51.122;6.840;2023-04-29T11:59:58;101616.03;;;14.47;68.76
6020;BME280;3038;51.122;6.840;2023-04-29T12:02:30;101620.66;;;14.96;67.04
6020;BME280;3038;51.122;6.840;2023-04-29T12:04:57;101616.94;;;15.37;65.96
6020;BME280;3038;51.122;6.840;2023-04-29T12:07:22;101614.41;;;15.77;65.83
6020;BME280;3038;51.122;6.840;2023-04-29T12:09:48;101616.28;;;15.43;64.53
6020;BME280;3038;51.122;6.840;2023-04-29T12:12:14;101622.97;;;15.31;65.60
6020;BME280;3038;51.122;6.840;2023-04-29T12:14:42;101612.78;;;15.35;64.83
6020;BME280;3038;51.122;6.840;2023-04-29T12:17:09;101621.97;;;15.40;64.55
6020;BME280;3038;51.122;6.840;2023-04-29T12:19:35;101615.25;;;15.69;64.63
6020;BME280;3038;51.122;6.840;2023-04-29T12:22:05;101613.50;;;16.01;64.46
6020;BME280;3038;51.122;6.840;2023-04-29T12:24:37;101612.00;;;16.29;60.90
6020;BME280;3038;51.122;6.840;2023-04-29T12:27:07;101615.63;;;16.44;61.80
6020;BME280;3038;51.122;6.840;2023-04-29T12:29:34;101610.66;;;16.87;60.39
6020;BME280;3038;51.122;6.840;2023-04-29T12:32:00;101614.09;;;17.19;61.27
6020;BME280;3038;51.122;6.840;2023-04-29T12:34:28;101619.69;;;17.32;59.77
6020;BME280;3038;51.122;6.840;2023-04-29T12:36:55;101614.59;;;17.75;58.86
6020;BME280;3038;51.122;6.840;2023-04-29T12:39:22;101616.09;;;17.69;58.52
6020;BME280;3038;51.122;6.840;2023-04-29T12:41:57;101617.91;;;17.77;57.67
6020;BME280;3038;51.122;6.840;2023-04-29T12:44:35;101613.25;;;17.71;57.36
6020;BME280;3038;51.122;6.840;2023-04-29T12:47:11;101618.69;;;17.63;57.77
6020;BME280;3038;51.122;6.840;2023-04-29T12:49:46;101619.06;;;17.60;58.75
6020;BME280;3038;51.122;6.840;2023-04-29T12:52:16;101615.53;;;17.59;58.02
6020;BME280;3038;51.122;6.840;2023-04-29T12:54:41;101618.94;;;17.38;59.69
6020;BME280;3038;51.122;6.840;2023-04-29T12:57:16;101623.84;;;17.35;58.28
6020;BME280;3038;51.122;6.840;2023-04-29T12:59:41;101630.03;;;17.35;58.80
6020;BME280;3038;51.122;6.840;2023-04-29T13:02:07;101629.91;;;17.52;58.49
6020;BME280;3038;51.122;6.840;2023-04-29T13:04:33;101632.94;;;17.48;57.44
6020;BME280;3038;51.122;6.840;2023-04-29T13:06:58;101631.47;;;17.46;57.68
6020;BME280;3038;51.122;6.840;2023-04-29T13:09:28;101629.34;;;17.41;58.65
6020;BME280;3038;51.122;6.840;2023-04-29T13:11:55;101627.31;;;17.58;56.79
6020;BME280;3038;51.122;6.840;2023-04-29T13:14:20;101629.53;;;17.55;57.39
6020;BME280;3038;51.122;6.840;2023-04-29T13:16:48;101626.56;;;17.50;56.02
6020;BME280;3038;51.122;6.840;2023-04-29T13:19:16;101629.75;;;17.30;57.25
6020;BME280;3038;51.122;6.840;2023-04-29T13:21:42;101635.56;;;17.19;56.92
6020;BME280;3038;51.122;6.840;2023-04-29T13:24:07;101635.28;;;17.52;57.29
6020;BME280;3038;51.122;6.840;2023-04-29T13:26:34;101625.78;;;17.93;56.67
6020;BME280;3038;51.122;6.840;2023-04-29T13:29:03;101622.94;;;18.31;54.51
6020;BME280;3038;51.122;6.840;2023-04-29T13:31:31;101620.56;;;18.21;53.64
6020;BME280;3038;51.122;6.840;2023-04-29T13:33:59;101611.63;;;18.36;54.53
6020;BME280;3038;51.122;6.840;2023-04-29T13:36:25;101622.50;;;18.13;54.22
6020;BME280;3038;51.122;6.840;2023-04-29T13:38:56;101626.41;;;17.66;54.41
6020;BME280;3038;51.122;6.840;2023-04-29T13:41:29;101618.28;;;17.21;55.76
6020;BME280;3038;51.122;6.840;2023-04-29T13:43:54;101623.09;;;16.88;56.67
6020;BME280;3038;51.122;6.840;2023-04-29T13:46:19;101625.66;;;16.42;57.94
6020;BME280;3038;51.122;6.840;2023-04-29T13:48:45;101627.88;;;16.39;58.51
6020;BME280;3038;51.122;6.840;2023-04-29T13:51:10;101628.06;;;16.29;58.18
6020;BME280;3038;51.122;6.840;2023-04-29T13:53:36;101629.25;;;16.35;58.58
6020;BME280;3038;51.122;6.840;2023-04-29T13:56:01;101630.16;;;16.50;58.23
6020;BME280;3038;51.122;6.840;2023-04-29T13:58:26;101631.13;;;16.57;57.80
6020;BME280;3038;51.122;6.840;2023-04-29T14:00:52;101624.69;;;16.66;57.47
6020;BME280;3038;51.122;6.840;2023-04-29T14:03:17;101623.53;;;16.69;57.52
6020;BME280;3038;51.122;6.840;2023-04-29T14:05:43;101630.44;;;16.86;57.31
6020;BME280;3038;51.122;6.840;2023-04-29T14:08:08;101624.84;;;16.96;57.35
6020;BME280;3038;51.122;6.840;2023-04-29T14:10:34;101637.84;;;17.07;57.47
6020;BME280;3038;51.122;6.840;2023-04-29T14:13:03;101627.13;;;16.84;57.18
6020;BME280;3038;51.122;6.840;2023-04-29T14:15:29;101632.56;;;16.68;58.00